Austin, TX (78727)

2:57 PM CDT on August 24, 2016 (GMT -0500)
Walnut Crossing | | Change Station

Elev 696 ft 30.41 °N, 97.71 °W | Updated 37 seconds ago

Clear
Clear
93.7 °F
Feels Like 102 °F
N
6.3
Wind Variable Wind from SSE
Gusts 6.3 mph

Today
High -- | Low -- °F
--% Chance of Precip.
Yesterday
High -- | Low -- °F
Precip. -- in
Pressure 30.05 in
Visibility 10.0 miles
Clouds Clear
Heat Index 102 °F
Dew Point 72 °F
Humidity 49%
Rainfall 0.00 in
Snow Depth Not available.
7:03 AM 8:02 PM
Waning Gibbous, 54% visible
METAR KATT 241951Z AUTO 20008G16KT 10SM CLR 33/22 A3010 RMK AO2 SLP176 T03330222
Pressure 30.05 in
Visibility 10.0 miles
Clouds Clear
Heat Index 102 °F
Dew Point 72 °F
Humidity 49%
Rainfall 0.00 in
Snow Depth Not available.
7:03 AM 8:02 PM
Waning Gibbous, 54% visible
METAR KATT 241951Z AUTO 20008G16KT 10SM CLR 33/22 A3010 RMK AO2 SLP176 T03330222

10-Day Weather Forecast

Almanac

Astronomy

Aug. 24, 2016 Rise Set
Actual Time
Civil Twilight
Nautical Twilight
Astronomical Twilight
Moon
Length of Visible Light
Length of Day
Tomorrow will be .
, % of the Moon is Illuminated

Today's Extremes

State Highs State Lows

Community

WunderPhotos

Upload Photos

1,934,690 photos uploaded!

WunderBlog® & News

Nearby

Air Quality

  Air Quality AQ Index Pollutant
Not available.

Snow Depth

Station Depth Elevation

Earthquake Activity

City Distance Mag. Time & Date
Minimum magnitude displayed is 2.5.

Coastal Water Temperatures

Place Temperature

Stations

Nearby Weather Stations

Station Location Temp. Windchill Dew Point Humidity Wind Precip. Elev Updated Type
                   

Watches & Warnings

There are currently no watches in effect.